sensor_id;sensor_type;location;lat;lon;timestamp;P1;durP1;ratioP1;P2;durP2;ratioP2
71174;SDS011;58876;51.994;4.472;2023-05-14T00:00:13;59.83;;;59.83;;
71174;SDS011;58876;51.994;4.472;2023-05-14T00:02:40;52.39;;;52.39;;
71174;SDS011;58876;51.994;4.472;2023-05-14T00:05:05;59.04;;;59.04;;
71174;SDS011;58876;51.994;4.472;2023-05-14T00:07:31;45.11;;;45.11;;
71174;SDS011;58876;51.994;4.472;2023-05-14T00:09:57;47.19;;;47.19;;
71174;SDS011;58876;51.994;4.472;2023-05-14T00:12:23;39.85;;;39.85;;
71174;SDS011;58876;51.994;4.472;2023-05-14T00:14:50;43.38;;;43.38;;
71174;SDS011;58876;51.994;4.472;2023-05-14T00:17:16;44.08;;;44.08;;
71174;SDS011;58876;51.994;4.472;2023-05-14T00:19:41;51.88;;;51.88;;
71174;SDS011;58876;51.994;4.472;2023-05-14T00:22:07;36.32;;;36.32;;
71174;SDS011;58876;51.994;4.472;2023-05-14T00:24:33;33.16;;;33.16;;
71174;SDS011;58876;51.994;4.472;2023-05-14T00:26:59;34.28;;;34.27;;
71174;SDS011;58876;51.994;4.472;2023-05-14T00:29:24;37.96;;;37.96;;
71174;SDS011;58876;51.994;4.472;2023-05-14T00:31:50;38.29;;;38.29;;
71174;SDS011;58876;51.994;4.472;2023-05-14T00:34:15;33.98;;;33.98;;
71174;SDS011;58876;51.994;4.472;2023-05-14T00:36:41;30.05;;;30.05;;
71174;SDS011;58876;51.994;4.472;2023-05-14T00:39:06;33.67;;;33.67;;
71174;SDS011;58876;51.994;4.472;2023-05-14T00:41:32;37.89;;;37.89;;
71174;SDS011;58876;51.994;4.472;2023-05-14T00:43:57;35.13;;;35.13;;
71174;SDS011;58876;51.994;4.472;2023-05-14T00:46:22;36.44;;;36.44;;
71174;SDS011;58876;51.994;4.472;2023-05-14T00:48:48;35.48;;;35.48;;
71174;SDS011;58876;51.994;4.472;2023-05-14T00:51:14;38.78;;;38.78;;
71174;SDS011;58876;51.994;4.472;2023-05-14T00:53:40;43.82;;;43.82;;
71174;SDS011;58876;51.994;4.472;2023-05-14T00:56:06;44.30;;;44.30;;
71174;SDS011;58876;51.994;4.472;2023-05-14T00:58:32;45.53;;;45.53;;
71174;SDS011;58876;51.994;4.472;2023-05-14T01:00:58;45.90;;;45.90;;
71174;SDS011;58876;51.994;4.472;2023-05-14T01:03:23;49.59;;;49.59;;
71174;SDS011;58876;51.994;4.472;2023-05-14T01:05:55;58.76;;;58.76;;
71174;SDS011;58876;51.994;4.472;2023-05-14T01:11:29;67.82;;;67.82;;
71174;SDS011;58876;51.994;4.472;2023-05-14T01:16:38;89.29;;;89.29;;
71174;SDS011;58876;51.994;4.472;2023-05-14T01:19:06;95.73;;;95.73;;
71174;SDS011;58876;51.994;4.472;2023-05-14T01:21:42;104.98;;;104.98;;
71174;SDS011;58876;51.994;4.472;2023-05-14T01:24:08;114.59;;;114.59;;
71174;SDS011;58876;51.994;4.472;2023-05-14T01:26:34;124.13;;;124.13;;
71174;SDS011;58876;51.994;4.472;2023-05-14T01:29:02;108.42;;;108.42;;
71174;SDS011;58876;51.994;4.472;2023-05-14T01:31:47;119.96;;;119.96;;
71174;SDS011;58876;51.994;4.472;2023-05-14T01:34:15;126.14;;;126.14;;
71174;SDS011;58876;51.994;4.472;2023-05-14T01:36:46;114.91;;;114.91;;
71174;SDS011;58876;51.994;4.472;2023-05-14T01:39:15;102.20;;;102.20;;
71174;SDS011;58876;51.994;4.472;2023-05-14T01:41:42;95.98;;;95.98;;
71174;SDS011;58876;51.994;4.472;2023-05-14T01:44:10;90.78;;;90.78;;
71174;SDS011;58876;51.994;4.472;2023-05-14T01:46:37;90.99;;;90.99;;
71174;SDS011;58876;51.994;4.472;2023-05-14T01:49:02;93.17;;;93.17;;
71174;SDS011;58876;51.994;4.472;2023-05-14T01:51:28;95.08;;;95.08;;
71174;SDS011;58876;51.994;4.472;2023-05-14T01:53:54;94.75;;;94.75;;
71174;SDS011;58876;51.994;4.472;2023-05-14T01:56:19;90.82;;;90.82;;
71174;SDS011;58876;51.994;4.472;2023-05-14T01:58:47;99.86;;;99.86;;
71174;SDS011;58876;51.994;4.472;2023-05-14T02:01:12;97.87;;;97.87;;
71174;SDS011;58876;51.994;4.472;2023-05-14T02:03:38;92.97;;;92.97;;
71174;SDS011;58876;51.994;4.472;2023-05-14T02:06:03;96.71;;;96.71;;
71174;SDS011;58876;51.994;4.472;2023-05-14T02:08:29;96.77;;;96.77;;
71174;SDS011;58876;51.994;4.472;2023-05-14T02:10:54;98.33;;;98.33;;
71174;SDS011;58876;51.994;4.472;2023-05-14T02:13:20;98.18;;;98.18;;
71174;SDS011;58876;51.994;4.472;2023-05-14T02:15:45;100.00;;;100.00;;
71174;SDS011;58876;51.994;4.472;2023-05-14T02:18:11;106.77;;;106.77;;
71174;SDS011;58876;51.994;4.472;2023-05-14T02:20:36;104.08;;;104.08;;
71174;SDS011;58876;51.994;4.472;2023-05-14T02:23:02;117.55;;;117.55;;
71174;SDS011;58876;51.994;4.472;2023-05-14T02:25:27;140.41;;;140.41;;
71174;SDS011;58876;51.994;4.472;2023-05-14T02:27:53;117.64;;;117.64;;
71174;SDS011;58876;51.994;4.472;2023-05-14T02:30:18;136.77;;;136.77;;
71174;SDS011;58876;51.994;4.472;2023-05-14T02:32:45;141.68;;;141.68;;
71174;SDS011;58876;51.994;4.472;2023-05-14T02:35:10;126.26;;;126.26;;
71174;SDS011;58876;51.994;4.472;2023-05-14T02:37:36;129.02;;;129.02;;
71174;SDS011;58876;51.994;4.472;2023-05-14T02:40:01;147.12;;;147.12;;
71174;SDS011;58876;51.994;4.472;2023-05-14T02:42:28;152.46;;;152.46;;
71174;SDS011;58876;51.994;4.472;2023-05-14T02:44:53;146.61;;;146.61;;
71174;SDS011;58876;51.994;4.472;2023-05-14T02:47:19;144.94;;;144.94;;
71174;SDS011;58876;51.994;4.472;2023-05-14T02:49:44;150.60;;;150.60;;
71174;SDS011;58876;51.994;4.472;2023-05-14T02:52:10;167.73;;;167.73;;
71174;SDS011;58876;51.994;4.472;2023-05-14T02:54:35;191.85;;;191.85;;
71174;SDS011;58876;51.994;4.472;2023-05-14T02:57:01;189.32;;;189.32;;
71174;SDS011;58876;51.994;4.472;2023-05-14T02:59:26;210.68;;;210.68;;
71174;SDS011;58876;51.994;4.472;2023-05-14T03:01:52;210.34;;;210.34;;
71174;SDS011;58876;51.994;4.472;2023-05-14T03:04:17;199.51;;;199.51;;
71174;SDS011;58876;51.994;4.472;2023-05-14T03:06:43;190.91;;;190.91;;
71174;SDS011;58876;51.994;4.472;2023-05-14T03:09:08;213.77;;;213.77;;
71174;SDS011;58876;51.994;4.472;2023-05-14T03:11:34;218.33;;;218.33;;
71174;SDS011;58876;51.994;4.472;2023-05-14T03:13:59;224.44;;;224.44;;
71174;SDS011;58876;51.994;4.472;2023-05-14T03:16:25;231.20;;;231.20;;
71174;SDS011;58876;51.994;4.472;2023-05-14T03:18:51;222.75;;;222.75;;
71174;SDS011;58876;51.994;4.472;2023-05-14T03:21:16;136.80;;;136.80;;
71174;SDS011;58876;51.994;4.472;2023-05-14T03:23:42;146.50;;;146.50;;
71174;SDS011;58876;51.994;4.472;2023-05-14T03:26:07;198.80;;;198.80;;
71174;SDS011;58876;51.994;4.472;2023-05-14T03:28:33;205.57;;;205.57;;
71174;SDS011;58876;51.994;4.472;2023-05-14T03:30:58;115.38;;;115.38;;
71174;SDS011;58876;51.994;4.472;2023-05-14T03:33:24;89.40;;;89.40;;
71174;SDS011;58876;51.994;4.472;2023-05-14T03:35:50;88.83;;;88.83;;
71174;SDS011;58876;51.994;4.472;2023-05-14T03:38:15;79.20;;;79.20;;
71174;SDS011;58876;51.994;4.472;2023-05-14T03:40:42;112.30;;;112.30;;
71174;SDS011;58876;51.994;4.472;2023-05-14T03:43:08;128.78;;;128.78;;
71174;SDS011;58876;51.994;4.472;2023-05-14T03:45:34;133.51;;;133.51;;
71174;SDS011;58876;51.994;4.472;2023-05-14T03:47:59;135.24;;;135.24;;
71174;SDS011;58876;51.994;4.472;2023-05-14T03:50:25;116.30;;;116.30;;
71174;SDS011;58876;51.994;4.472;2023-05-14T03:52:50;112.42;;;112.42;;
71174;SDS011;58876;51.994;4.472;2023-05-14T03:55:18;124.11;;;124.11;;
71174;SDS011;58876;51.994;4.472;2023-05-14T03:57:44;124.07;;;124.07;;
71174;SDS011;58876;51.994;4.472;2023-05-14T04:00:09;163.60;;;163.60;;
71174;SDS011;58876;51.994;4.472;2023-05-14T04:02:35;82.82;;;82.82;;
71174;SDS011;58876;51.994;4.472;2023-05-14T04:05:01;46.15;;;46.15;;
71174;SDS011;58876;51.994;4.472;2023-05-14T04:07:26;63.59;;;63.59;;
71174;SDS011;58876;51.994;4.472;2023-05-14T04:09:52;81.41;;;81.41;;
71174;SDS011;58876;51.994;4.472;2023-05-14T04:12:17;79.54;;;79.54;;
71174;SDS011;58876;51.994;4.472;2023-05-14T04:14:43;86.51;;;86.51;;
71174;SDS011;58876;51.994;4.472;2023-05-14T04:17:08;129.58;;;129.58;;
71174;SDS011;58876;51.994;4.472;2023-05-14T04:19:34;174.01;;;174.01;;
71174;SDS011;58876;51.994;4.472;2023-05-14T04:21:59;195.43;;;195.43;;
71174;SDS011;58876;51.994;4.472;2023-05-14T04:24:24;106.89;;;106.89;;
71174;SDS011;58876;51.994;4.472;2023-05-14T04:26:50;138.07;;;138.07;;
71174;SDS011;58876;51.994;4.472;2023-05-14T04:29:15;138.88;;;138.88;;
71174;SDS011;58876;51.994;4.472;2023-05-14T04:31:41;141.16;;;141.16;;
71174;SDS011;58876;51.994;4.472;2023-05-14T04:34:07;148.46;;;148.46;;
71174;SDS011;58876;51.994;4.472;2023-05-14T04:36:32;149.22;;;149.22;;
71174;SDS011;58876;51.994;4.472;2023-05-14T04:38:58;80.02;;;80.02;;
71174;SDS011;58876;51.994;4.472;2023-05-14T04:41:23;69.22;;;69.22;;
71174;SDS011;58876;51.994;4.472;2023-05-14T04:43:49;158.92;;;158.92;;
71174;SDS011;58876;51.994;4.472;2023-05-14T04:46:14;197.61;;;197.61;;
71174;SDS011;58876;51.994;4.472;2023-05-14T04:48:40;156.17;;;156.17;;
71174;SDS011;58876;51.994;4.472;2023-05-14T04:51:06;157.84;;;157.84;;
71174;SDS011;58876;51.994;4.472;2023-05-14T04:53:31;106.04;;;106.04;;
71174;SDS011;58876;51.994;4.472;2023-05-14T04:55:57;92.82;;;92.82;;
71174;SDS011;58876;51.994;4.472;2023-05-14T04:58:22;63.04;;;63.04;;
71174;SDS011;58876;51.994;4.472;2023-05-14T05:00:48;39.90;;;39.90;;
71174;SDS011;58876;51.994;4.472;2023-05-14T05:03:14;31.36;;;31.36;;
71174;SDS011;58876;51.994;4.472;2023-05-14T05:05:40;150.62;;;150.62;;
71174;SDS011;58876;51.994;4.472;2023-05-14T05:08:05;279.59;;;279.59;;
71174;SDS011;58876;51.994;4.472;2023-05-14T05:10:30;274.89;;;274.89;;
71174;SDS011;58876;51.994;4.472;2023-05-14T05:12:56;190.47;;;190.47;;
71174;SDS011;58876;51.994;4.472;2023-05-14T05:15:21;181.17;;;181.17;;
71174;SDS011;58876;51.994;4.472;2023-05-14T05:17:47;188.23;;;188.23;;
71174;SDS011;58876;51.994;4.472;2023-05-14T05:20:12;157.88;;;157.88;;
71174;SDS011;58876;51.994;4.472;2023-05-14T05:22:38;166.93;;;166.93;;
71174;SDS011;58876;51.994;4.472;2023-05-14T05:25:03;122.36;;;122.36;;
71174;SDS011;58876;51.994;4.472;2023-05-14T05:27:30;271.61;;;271.61;;
71174;SDS011;58876;51.994;4.472;2023-05-14T05:29:57;155.74;;;155.74;;
71174;SDS011;58876;51.994;4.472;2023-05-14T05:32:23;34.11;;;34.11;;
71174;SDS011;58876;51.994;4.472;2023-05-14T05:34:49;29.17;;;29.17;;
71174;SDS011;58876;51.994;4.472;2023-05-14T05:37:16;29.38;;;29.38;;
71174;SDS011;58876;51.994;4.472;2023-05-14T05:39:41;45.55;;;45.55;;
71174;SDS011;58876;51.994;4.472;2023-05-14T05:42:07;56.28;;;56.28;;
71174;SDS011;58876;51.994;4.472;2023-05-14T05:44:32;44.39;;;44.39;;
71174;SDS011;58876;51.994;4.472;2023-05-14T05:46:58;41.75;;;41.75;;
71174;SDS011;58876;51.994;4.472;2023-05-14T05:49:23;41.70;;;41.70;;
71174;SDS011;58876;51.994;4.472;2023-05-14T05:51:49;48.08;;;48.08;;
71174;SDS011;58876;51.994;4.472;2023-05-14T05:54:14;45.82;;;45.82;;
71174;SDS011;58876;51.994;4.472;2023-05-14T05:56:40;46.70;;;46.70;;
71174;SDS011;58876;51.994;4.472;2023-05-14T05:59:05;43.21;;;43.21;;
71174;SDS011;58876;51.994;4.472;2023-05-14T06:01:31;41.27;;;41.27;;
71174;SDS011;58876;51.994;4.472;2023-05-14T06:03:56;42.30;;;42.30;;
71174;SDS011;58876;51.994;4.472;2023-05-14T06:06:22;45.69;;;45.69;;
71174;SDS011;58876;51.994;4.472;2023-05-14T06:08:47;39.33;;;39.25;;
71174;SDS011;58876;51.994;4.472;2023-05-14T06:11:13;43.97;;;43.97;;
71174;SDS011;58876;51.994;4.472;2023-05-14T06:13:39;44.37;;;44.35;;
71174;SDS011;58876;51.994;4.472;2023-05-14T06:16:04;43.06;;;43.06;;
71174;SDS011;58876;51.994;4.472;2023-05-14T06:18:30;41.08;;;41.08;;
71174;SDS011;58876;51.994;4.472;2023-05-14T06:20:56;40.17;;;40.11;;
71174;SDS011;58876;51.994;4.472;2023-05-14T06:23:24;37.36;;;37.15;;
71174;SDS011;58876;51.994;4.472;2023-05-14T06:25:50;39.14;;;38.91;;
71174;SDS011;58876;51.994;4.472;2023-05-14T06:28:16;38.28;;;38.25;;
71174;SDS011;58876;51.994;4.472;2023-05-14T06:30:41;36.42;;;36.30;;
71174;SDS011;58876;51.994;4.472;2023-05-14T06:33:07;34.08;;;34.00;;
71174;SDS011;58876;51.994;4.472;2023-05-14T06:35:32;33.98;;;33.83;;
71174;SDS011;58876;51.994;4.472;2023-05-14T06:37:58;32.24;;;32.12;;
71174;SDS011;58876;51.994;4.472;2023-05-14T06:40:24;31.69;;;31.56;;
71174;SDS011;58876;51.994;4.472;2023-05-14T06:42:49;30.32;;;30.31;;
71174;SDS011;58876;51.994;4.472;2023-05-14T06:45:15;28.94;;;28.94;;
71174;SDS011;58876;51.994;4.472;2023-05-14T06:47:41;27.74;;;27.74;;
71174;SDS011;58876;51.994;4.472;2023-05-14T06:50:06;26.92;;;26.90;;
71174;SDS011;58876;51.994;4.472;2023-05-14T06:52:32;26.55;;;26.55;;
71174;SDS011;58876;51.994;4.472;2023-05-14T06:54:57;26.31;;;26.31;;
71174;SDS011;58876;51.994;4.472;2023-05-14T06:57:23;25.19;;;25.19;;
71174;SDS011;58876;51.994;4.472;2023-05-14T06:59:48;24.95;;;24.95;;
71174;SDS011;58876;51.994;4.472;2023-05-14T07:02:14;25.17;;;25.17;;
71174;SDS011;58876;51.994;4.472;2023-05-14T07:04:39;24.98;;;24.98;;
71174;SDS011;58876;51.994;4.472;2023-05-14T07:07:05;23.67;;;23.67;;
71174;SDS011;58876;51.994;4.472;2023-05-14T07:09:30;23.11;;;23.11;;
71174;SDS011;58876;51.994;4.472;2023-05-14T07:11:56;22.89;;;22.89;;
71174;SDS011;58876;51.994;4.472;2023-05-14T07:14:21;22.60;;;22.60;;
71174;SDS011;58876;51.994;4.472;2023-05-14T07:16:48;25.93;;;25.93;;
71174;SDS011;58876;51.994;4.472;2023-05-14T07:19:13;37.69;;;37.69;;
71174;SDS011;58876;51.994;4.472;2023-05-14T07:21:39;21.58;;;21.58;;
71174;SDS011;58876;51.994;4.472;2023-05-14T07:24:04;21.36;;;21.36;;
71174;SDS011;58876;51.994;4.472;2023-05-14T07:26:30;21.30;;;21.30;;
71174;SDS011;58876;51.994;4.472;2023-05-14T07:28:55;22.05;;;22.05;;
71174;SDS011;58876;51.994;4.472;2023-05-14T07:31:21;21.94;;;21.94;;
71174;SDS011;58876;51.994;4.472;2023-05-14T07:33:46;21.38;;;21.38;;
71174;SDS011;58876;51.994;4.472;2023-05-14T07:36:12;20.57;;;20.57;;
71174;SDS011;58876;51.994;4.472;2023-05-14T07:38:38;20.84;;;20.84;;
71174;SDS011;58876;51.994;4.472;2023-05-14T07:41:03;20.71;;;20.71;;
71174;SDS011;58876;51.994;4.472;2023-05-14T07:43:29;20.47;;;20.47;;
71174;SDS011;58876;51.994;4.472;2023-05-14T07:45:55;19.54;;;19.54;;
71174;SDS011;58876;51.994;4.472;2023-05-14T07:48:20;19.82;;;19.82;;
71174;SDS011;58876;51.994;4.472;2023-05-14T07:50:47;19.58;;;19.58;;
71174;SDS011;58876;51.994;4.472;2023-05-14T07:53:13;18.76;;;18.76;;
71174;SDS011;58876;51.994;4.472;2023-05-14T07:55:38;17.39;;;17.39;;
71174;SDS011;58876;51.994;4.472;2023-05-14T07:58:04;16.34;;;16.34;;
71174;SDS011;58876;51.994;4.472;2023-05-14T08:00:30;16.00;;;16.00;;
71174;SDS011;58876;51.994;4.472;2023-05-14T08:02:56;18.11;;;18.11;;
71174;SDS011;58876;51.994;4.472;2023-05-14T08:05:21;17.64;;;17.64;;
71174;SDS011;58876;51.994;4.472;2023-05-14T08:07:47;16.31;;;16.31;;
71174;SDS011;58876;51.994;4.472;2023-05-14T08:10:12;16.98;;;16.98;;
71174;SDS011;58876;51.994;4.472;2023-05-14T08:12:37;18.66;;;18.66;;
71174;SDS011;58876;51.994;4.472;2023-05-14T08:15:04;18.13;;;18.13;;
71174;SDS011;58876;51.994;4.472;2023-05-14T08:17:31;24.33;;;24.33;;
71174;SDS011;58876;51.994;4.472;2023-05-14T08:19:57;17.17;;;17.17;;
71174;SDS011;58876;51.994;4.472;2023-05-14T08:22:22;23.49;;;23.49;;
71174;SDS011;58876;51.994;4.472;2023-05-14T08:24:48;32.40;;;32.40;;
71174;SDS011;58876;51.994;4.472;2023-05-14T08:27:13;47.93;;;47.93;;
71174;SDS011;58876;51.994;4.472;2023-05-14T08:29:40;31.83;;;31.83;;
71174;SDS011;58876;51.994;4.472;2023-05-14T08:32:06;34.44;;;34.44;;
71174;SDS011;58876;51.994;4.472;2023-05-14T08:34:31;67.61;;;67.61;;
71174;SDS011;58876;51.994;4.472;2023-05-14T08:36:56;178.29;;;178.29;;
71174;SDS011;58876;51.994;4.472;2023-05-14T08:39:23;246.99;;;246.99;;
71174;SDS011;58876;51.994;4.472;2023-05-14T08:41:49;195.99;;;195.99;;
71174;SDS011;58876;51.994;4.472;2023-05-14T08:44:19;270.81;;;270.81;;
71174;SDS011;58876;51.994;4.472;2023-05-14T08:46:53;309.59;;;309.59;;
71174;SDS011;58876;51.994;4.472;2023-05-14T08:49:31;394.98;;;394.98;;
71174;SDS011;58876;51.994;4.472;2023-05-14T08:52:05;611.59;;;611.59;;
71174;SDS011;58876;51.994;4.472;2023-05-14T08:54:31;575.60;;;575.60;;
71174;SDS011;58876;51.994;4.472;2023-05-14T08:56:56;407.14;;;407.14;;
71174;SDS011;58876;51.994;4.472;2023-05-14T08:59:23;328.87;;;328.87;;
71174;SDS011;58876;51.994;4.472;2023-05-14T09:01:50;275.94;;;275.94;;
71174;SDS011;58876;51.994;4.472;2023-05-14T09:04:18;241.27;;;241.27;;
71174;SDS011;58876;51.994;4.472;2023-05-14T09:06:47;108.93;;;108.93;;
71174;SDS011;58876;51.994;4.472;2023-05-14T09:09:17;99.02;;;99.02;;
71174;SDS011;58876;51.994;4.472;2023-05-14T09:11:46;57.14;;;57.14;;
71174;SDS011;58876;51.994;4.472;2023-05-14T09:14:15;88.88;;;88.88;;
71174;SDS011;58876;51.994;4.472;2023-05-14T09:16:42;74.25;;;74.25;;
71174;SDS011;58876;51.994;4.472;2023-05-14T09:19:10;96.94;;;96.94;;
71174;SDS011;58876;51.994;4.472;2023-05-14T09:21:36;78.50;;;78.50;;
71174;SDS011;58876;51.994;4.472;2023-05-14T09:24:02;51.26;;;51.26;;
71174;SDS011;58876;51.994;4.472;2023-05-14T09:26:30;66.15;;;66.15;;
71174;SDS011;58876;51.994;4.472;2023-05-14T09:28:57;78.68;;;78.68;;
71174;SDS011;58876;51.994;4.472;2023-05-14T09:31:28;84.11;;;84.11;;
71174;SDS011;58876;51.994;4.472;2023-05-14T09:33:55;70.62;;;70.62;;
71174;SDS011;58876;51.994;4.472;2023-05-14T09:36:21;105.75;;;105.75;;
71174;SDS011;58876;51.994;4.472;2023-05-14T09:38:49;51.59;;;51.59;;
71174;SDS011;58876;51.994;4.472;2023-05-14T09:41:15;66.37;;;66.37;;
71174;SDS011;58876;51.994;4.472;2023-05-14T09:43:41;73.59;;;73.59;;
71174;SDS011;58876;51.994;4.472;2023-05-14T09:46:06;79.12;;;79.12;;
71174;SDS011;58876;51.994;4.472;2023-05-14T09:48:32;80.44;;;80.44;;
71174;SDS011;58876;51.994;4.472;2023-05-14T09:50:57;96.95;;;96.95;;
71174;SDS011;58876;51.994;4.472;2023-05-14T09:53:23;57.45;;;57.45;;
71174;SDS011;58876;51.994;4.472;2023-05-14T09:55:48;54.50;;;54.50;;
71174;SDS011;58876;51.994;4.472;2023-05-14T09:58:14;56.35;;;56.35;;
71174;SDS011;58876;51.994;4.472;2023-05-14T10:00:43;91.55;;;91.55;;
71174;SDS011;58876;51.994;4.472;2023-05-14T10:03:12;56.95;;;56.95;;
71174;SDS011;58876;51.994;4.472;2023-05-14T10:05:42;40.80;;;40.80;;
71174;SDS011;58876;51.994;4.472;2023-05-14T10:10:48;65.80;;;65.80;;
71174;SDS011;58876;51.994;4.472;2023-05-14T10:13:17;89.58;;;89.58;;
71174;SDS011;58876;51.994;4.472;2023-05-14T10:15:47;112.77;;;112.77;;
71174;SDS011;58876;51.994;4.472;2023-05-14T10:18:21;170.36;;;170.36;;
71174;SDS011;58876;51.994;4.472;2023-05-14T10:21:09;142.30;;;142.30;;
71174;SDS011;58876;51.994;4.472;2023-05-14T10:23:34;147.04;;;147.04;;
71174;SDS011;58876;51.994;4.472;2023-05-14T10:26:02;198.16;;;198.16;;
71174;SDS011;58876;51.994;4.472;2023-05-14T10:28:29;171.83;;;171.83;;
71174;SDS011;58876;51.994;4.472;2023-05-14T10:30:56;198.82;;;198.82;;
71174;SDS011;58876;51.994;4.472;2023-05-14T10:33:23;289.13;;;289.13;;
71174;SDS011;58876;51.994;4.472;2023-05-14T10:35:55;238.87;;;238.87;;
71174;SDS011;58876;51.994;4.472;2023-05-14T10:38:29;157.06;;;157.06;;
71174;SDS011;58876;51.994;4.472;2023-05-14T10:40:59;103.84;;;103.84;;
71174;SDS011;58876;51.994;4.472;2023-05-14T10:43:26;86.60;;;86.60;;
71174;SDS011;58876;51.994;4.472;2023-05-14T10:45:56;136.66;;;136.66;;
71174;SDS011;58876;51.994;4.472;2023-05-14T10:48:23;124.38;;;124.38;;
71174;SDS011;58876;51.994;4.472;2023-05-14T10:50:50;109.50;;;109.50;;
71174;SDS011;58876;51.994;4.472;2023-05-14T10:53:16;138.83;;;138.83;;
71174;SDS011;58876;51.994;4.472;2023-05-14T10:55:42;183.66;;;183.66;;
71174;SDS011;58876;51.994;4.472;2023-05-14T10:58:11;111.03;;;111.03;;
71174;SDS011;58876;51.994;4.472;2023-05-14T11:00:38;105.53;;;105.53;;
71174;SDS011;58876;51.994;4.472;2023-05-14T11:03:06;100.00;;;100.00;;
71174;SDS011;58876;51.994;4.472;2023-05-14T11:05:32;65.63;;;65.63;;
71174;SDS011;58876;51.994;4.472;2023-05-14T11:08:01;28.55;;;28.55;;
71174;SDS011;58876;51.994;4.472;2023-05-14T11:10:32;38.27;;;38.27;;
71174;SDS011;58876;51.994;4.472;2023-05-14T11:12:59;26.15;;;26.15;;
71174;SDS011;58876;51.994;4.472;2023-05-14T11:15:25;16.75;;;16.75;;
71174;SDS011;58876;51.994;4.472;2023-05-14T11:17:52;14.62;;;14.62;;
71174;SDS011;58876;51.994;4.472;2023-05-14T11:20:18;22.33;;;22.33;;
71174;SDS011;58876;51.994;4.472;2023-05-14T11:22:45;24.70;;;24.70;;
71174;SDS011;58876;51.994;4.472;2023-05-14T11:25:13;12.22;;;12.22;;
71174;SDS011;58876;51.994;4.472;2023-05-14T11:27:39;12.42;;;12.42;;
71174;SDS011;58876;51.994;4.472;2023-05-14T11:30:16;17.21;;;17.21;;
71174;SDS011;58876;51.994;4.472;2023-05-14T11:32:43;15.11;;;15.11;;
71174;SDS011;58876;51.994;4.472;2023-05-14T11:35:11;13.25;;;13.25;;
71174;SDS011;58876;51.994;4.472;2023-05-14T11:37:37;15.34;;;15.34;;
71174;SDS011;58876;51.994;4.472;2023-05-14T11:40:05;19.14;;;19.14;;
71174;SDS011;58876;51.994;4.472;2023-05-14T11:42:38;11.93;;;11.93;;
71174;SDS011;58876;51.994;4.472;2023-05-14T11:45:05;13.22;;;13.22;;
71174;SDS011;58876;51.994;4.472;2023-05-14T11:47:31;12.35;;;12.35;;
71174;SDS011;58876;51.994;4.472;2023-05-14T11:49:57;12.31;;;12.31;;
71174;SDS011;58876;51.994;4.472;2023-05-14T11:52:24;11.40;;;11.40;;
71174;SDS011;58876;51.994;4.472;2023-05-14T11:54:50;12.69;;;12.69;;
71174;SDS011;58876;51.994;4.472;2023-05-14T11:57:17;12.03;;;12.03;;
71174;SDS011;58876;51.994;4.472;2023-05-14T11:59:44;10.06;;;10.06;;
71174;SDS011;58876;51.994;4.472;2023-05-14T12:02:14;9.36;;;9.36;;
71174;SDS011;58876;51.994;4.472;2023-05-14T12:04:42;10.13;;;10.13;;
71174;SDS011;58876;51.994;4.472;2023-05-14T12:07:14;10.20;;;10.20;;
71174;SDS011;58876;51.994;4.472;2023-05-14T12:09:41;10.60;;;10.60;;
71174;SDS011;58876;51.994;4.472;2023-05-14T12:12:13;10.05;;;10.05;;
71174;SDS011;58876;51.994;4.472;2023-05-14T12:14:42;10.19;;;10.19;;
71174;SDS011;58876;51.994;4.472;2023-05-14T12:17:25;10.28;;;10.28;;
71174;SDS011;58876;51.994;4.472;2023-05-14T12:19:51;9.72;;;9.72;;
71174;SDS011;58876;51.994;4.472;2023-05-14T12:22:17;297.59;;;297.59;;
71174;SDS011;58876;51.994;4.472;2023-05-14T12:24:54;471.97;;;471.97;;
71174;SDS011;58876;51.994;4.472;2023-05-14T12:27:21;17.96;;;17.96;;
71174;SDS011;58876;51.994;4.472;2023-05-14T12:30:03;57.90;;;57.90;;
71174;SDS011;58876;51.994;4.472;2023-05-14T12:32:30;105.76;;;105.76;;
71174;SDS011;58876;51.994;4.472;2023-05-14T12:34:59;9.61;;;9.61;;
71174;SDS011;58876;51.994;4.472;2023-05-14T12:37:25;9.17;;;9.17;;
71174;SDS011;58876;51.994;4.472;2023-05-14T12:39:51;24.05;;;24.05;;
71174;SDS011;58876;51.994;4.472;2023-05-14T12:42:16;9.38;;;9.38;;
71174;SDS011;58876;51.994;4.472;2023-05-14T12:44:42;15.84;;;15.84;;
71174;SDS011;58876;51.994;4.472;2023-05-14T12:47:07;13.50;;;13.50;;
71174;SDS011;58876;51.994;4.472;2023-05-14T12:49:33;10.19;;;10.19;;
71174;SDS011;58876;51.994;4.472;2023-05-14T12:51:58;10.58;;;10.58;;
71174;SDS011;58876;51.994;4.472;2023-05-14T12:54:24;13.70;;;13.70;;
71174;SDS011;58876;51.994;4.472;2023-05-14T12:56:50;12.24;;;12.24;;
71174;SDS011;58876;51.994;4.472;2023-05-14T12:59:15;12.67;;;12.67;;
71174;SDS011;58876;51.994;4.472;2023-05-14T13:01:41;15.03;;;15.03;;
71174;SDS011;58876;51.994;4.472;2023-05-14T13:04:08;14.55;;;14.55;;
71174;SDS011;58876;51.994;4.472;2023-05-14T13:06:36;16.79;;;16.79;;
71174;SDS011;58876;51.994;4.472;2023-05-14T13:09:02;13.74;;;13.74;;
71174;SDS011;58876;51.994;4.472;2023-05-14T13:11:28;13.39;;;13.39;;
71174;SDS011;58876;51.994;4.472;2023-05-14T13:13:56;22.65;;;22.65;;
71174;SDS011;58876;51.994;4.472;2023-05-14T13:16:22;16.99;;;16.99;;
71174;SDS011;58876;51.994;4.472;2023-05-14T13:18:49;18.98;;;18.98;;
71174;SDS011;58876;51.994;4.472;2023-05-14T13:21:15;25.96;;;25.96;;
71174;SDS011;58876;51.994;4.472;2023-05-14T13:23:40;39.79;;;39.79;;
71174;SDS011;58876;51.994;4.472;2023-05-14T13:26:05;27.36;;;26.91;;
71174;SDS011;58876;51.994;4.472;2023-05-14T13:28:31;45.61;;;45.29;;
71174;SDS011;58876;51.994;4.472;2023-05-14T13:31:04;23.15;;;23.15;;
71174;SDS011;58876;51.994;4.472;2023-05-14T13:33:33;63.42;;;63.42;;
71174;SDS011;58876;51.994;4.472;2023-05-14T13:36:00;18.04;;;18.04;;
71174;SDS011;58876;51.994;4.472;2023-05-14T13:38:26;29.70;;;29.70;;
71174;SDS011;58876;51.994;4.472;2023-05-14T13:40:51;39.39;;;39.39;;
71174;SDS011;58876;51.994;4.472;2023-05-14T13:43:18;16.70;;;16.70;;
71174;SDS011;58876;51.994;4.472;2023-05-14T13:45:43;11.94;;;11.94;;
71174;SDS011;58876;51.994;4.472;2023-05-14T13:48:09;24.82;;;24.81;;
71174;SDS011;58876;51.994;4.472;2023-05-14T13:50:35;12.19;;;12.19;;
71174;SDS011;58876;51.994;4.472;2023-05-14T13:53:00;18.00;;;18.00;;
71174;SDS011;58876;51.994;4.472;2023-05-14T13:55:25;18.63;;;18.63;;
71174;SDS011;58876;51.994;4.472;2023-05-14T13:57:51;30.17;;;30.17;;
71174;SDS011;58876;51.994;4.472;2023-05-14T14:00:17;25.82;;;25.60;;
71174;SDS011;58876;51.994;4.472;2023-05-14T14:02:42;13.16;;;13.16;;
71174;SDS011;58876;51.994;4.472;2023-05-14T14:05:08;12.17;;;12.17;;
71174;SDS011;58876;51.994;4.472;2023-05-14T14:07:33;13.25;;;13.25;;
71174;SDS011;58876;51.994;4.472;2023-05-14T14:09:59;18.43;;;18.43;;
71174;SDS011;58876;51.994;4.472;2023-05-14T14:12:25;13.71;;;13.71;;
71174;SDS011;58876;51.994;4.472;2023-05-14T14:14:51;13.76;;;13.76;;
71174;SDS011;58876;51.994;4.472;2023-05-14T14:17:17;12.77;;;12.74;;